createdAt,value
2018-04-15T00:01:51.590Z,14.10
2018-04-15T00:04:19.131Z,14.00
2018-04-15T00:06:46.654Z,13.90
2018-04-15T00:09:14.381Z,13.90
2018-04-15T00:11:41.958Z,14.00
2018-04-15T00:14:10.259Z,15.70
2018-04-15T00:16:37.820Z,13.90
2018-04-15T00:19:05.378Z,13.90
2018-04-15T00:21:32.904Z,13.90
2018-04-15T00:24:00.470Z,13.80
2018-04-15T00:26:28.023Z,13.90
2018-04-15T00:28:55.589Z,13.80
2018-04-15T00:31:23.098Z,13.80
2018-04-15T00:33:50.639Z,13.70
2018-04-15T00:36:18.199Z,13.70
2018-04-15T00:38:45.741Z,13.60
2018-04-15T00:41:14.055Z,13.60
2018-04-15T00:43:41.564Z,13.60
2018-04-15T00:46:09.115Z,13.60
2018-04-15T00:48:36.630Z,13.50
2018-04-15T00:51:04.173Z,13.50
2018-04-15T00:53:43.326Z,13.50
2018-04-15T00:56:10.878Z,13.50
2018-04-15T00:58:38.409Z,13.50
2018-04-15T01:01:05.973Z,13.50
2018-04-15T01:03:33.522Z,13.40
2018-04-15T01:06:01.864Z,13.40
2018-04-15T01:08:29.673Z,13.40
2018-04-15T01:10:58.185Z,13.30
2018-04-15T01:13:25.718Z,13.20
2018-04-15T01:15:53.264Z,13.20
2018-04-15T01:18:21.594Z,13.20
2018-04-15T01:20:49.110Z,13.10
2018-04-15T01:23:17.458Z,13.10
2018-04-15T01:25:45.051Z,13.10
2018-04-15T01:28:12.629Z,13.00
2018-04-15T01:30:40.152Z,13.00
2018-04-15T01:33:08.514Z,13.00
2018-04-15T01:35:36.074Z,12.90
2018-04-15T01:38:03.588Z,12.90
2018-04-15T01:40:31.123Z,12.90
2018-04-15T01:42:58.640Z,12.90
2018-04-15T01:45:26.216Z,13.00
2018-04-15T01:47:53.741Z,13.00
2018-04-15T01:50:21.303Z,12.80
2018-04-15T01:52:48.818Z,12.80
2018-04-15T01:55:32.040Z,12.90
2018-04-15T01:58:00.358Z,12.80
2018-04-15T02:00:27.892Z,12.80
2018-04-15T02:02:55.496Z,12.80
2018-04-15T02:05:23.041Z,12.80
2018-04-15T02:07:50.618Z,12.90
2018-04-15T02:10:18.224Z,12.90
2018-04-15T02:12:46.541Z,12.80
2018-04-15T02:15:14.099Z,12.80
2018-04-15T02:17:41.692Z,12.80
2018-04-15T02:20:09.231Z,12.70
2018-04-15T02:22:36.834Z,12.70
2018-04-15T02:25:04.400Z,12.70
2018-04-15T02:27:31.960Z,12.60
2018-04-15T02:30:00.292Z,12.60
2018-04-15T02:32:27.851Z,12.60
2018-04-15T02:34:55.417Z,12.70
2018-04-15T02:37:22.972Z,12.80
2018-04-15T02:39:50.503Z,12.80
2018-04-15T02:42:18.059Z,12.70
2018-04-15T02:44:45.596Z,12.70
2018-04-15T02:47:13.152Z,12.70
2018-04-15T02:49:41.487Z,12.60
2018-04-15T02:52:09.044Z,12.60
2018-04-15T02:54:36.608Z,12.60
2018-04-15T02:57:04.183Z,12.50
2018-04-15T02:59:31.727Z,12.50
2018-04-15T03:01:59.302Z,12.50
2018-04-15T03:04:26.848Z,12.50
2018-04-15T03:06:54.459Z,12.40
2018-04-15T03:09:21.995Z,12.40
2018-04-15T03:11:49.582Z,12.40
2018-04-15T03:14:17.151Z,12.40
2018-04-15T03:16:44.688Z,12.40
2018-04-15T03:19:12.250Z,12.30
2018-04-15T03:21:40.547Z,12.30
2018-04-15T03:24:08.082Z,12.30
2018-04-15T03:26:36.425Z,12.20
2018-04-15T03:29:04.029Z,12.20
2018-04-15T03:31:31.599Z,12.20
2018-04-15T03:33:59.127Z,12.20
2018-04-15T03:36:26.688Z,12.20
2018-04-15T03:38:54.224Z,12.20
2018-04-15T03:41:21.785Z,12.00
2018-04-15T03:43:49.349Z,12.00
2018-04-15T03:46:16.904Z,12.00
2018-04-15T03:48:44.437Z,11.90
2018-04-15T03:51:11.988Z,11.90
2018-04-15T03:53:39.558Z,11.90
2018-04-15T03:56:07.092Z,12.00
2018-04-15T03:58:34.656Z,12.00
2018-04-15T04:01:02.192Z,11.90
2018-04-15T04:03:29.799Z,11.80
2018-04-15T04:05:57.332Z,11.90
2018-04-15T04:08:24.875Z,11.90
2018-04-15T04:10:52.474Z,11.90
2018-04-15T04:13:20.019Z,11.90
2018-04-15T04:15:47.608Z,11.90
2018-04-15T04:18:26.847Z,11.90
2018-04-15T04:21:06.164Z,11.90
2018-04-15T04:23:45.471Z,12.00
2018-04-15T04:26:13.003Z,11.80
2018-04-15T04:28:40.547Z,11.70
2018-04-15T04:31:08.935Z,11.60
2018-04-15T04:33:36.456Z,11.60
2018-04-15T04:36:03.983Z,11.60
2018-04-15T04:38:31.576Z,11.60
2018-04-15T04:40:59.155Z,11.60
2018-04-15T04:43:26.711Z,11.60
2018-04-15T04:45:54.235Z,11.60
2018-04-15T04:48:21.799Z,11.60
2018-04-15T04:50:49.380Z,11.60
2018-04-15T04:53:16.938Z,11.60
2018-04-15T04:55:44.467Z,11.60
2018-04-15T04:58:12.092Z,11.60
2018-04-15T05:00:39.636Z,11.50
2018-04-15T05:03:07.172Z,11.60
2018-04-15T05:05:34.738Z,11.60
2018-04-15T05:08:02.267Z,11.60
2018-04-15T05:10:29.829Z,11.50
2018-04-15T05:12:57.400Z,11.50
2018-04-15T05:15:24.973Z,11.50
2018-04-15T05:17:52.496Z,11.50
2018-04-15T05:20:20.060Z,11.50
2018-04-15T05:22:48.348Z,11.60
2018-04-15T05:25:15.908Z,11.60
2018-04-15T05:27:43.432Z,11.60
2018-04-15T05:30:11.764Z,11.60
2018-04-15T05:32:39.300Z,11.60
2018-04-15T05:35:06.832Z,11.60
2018-04-15T05:37:34.461Z,11.70
2018-04-15T05:40:01.959Z,11.70
2018-04-15T05:42:29.527Z,11.60
2018-04-15T05:44:57.140Z,11.70
2018-04-15T05:47:24.750Z,11.70
2018-04-15T05:49:52.294Z,11.70
2018-04-15T05:52:19.924Z,11.60
2018-04-15T05:54:47.470Z,11.70
2018-04-15T05:57:15.100Z,11.70
2018-04-15T05:59:42.751Z,11.80
2018-04-15T06:02:11.081Z,11.90
2018-04-15T06:04:38.625Z,11.90
2018-04-15T06:07:06.197Z,11.80
2018-04-15T06:09:33.797Z,11.80
2018-04-15T06:12:02.141Z,12.00
2018-04-15T06:14:29.704Z,12.00
2018-04-15T06:16:57.263Z,12.20
2018-04-15T06:19:25.571Z,12.30
2018-04-15T06:21:53.902Z,12.30
2018-04-15T06:24:21.530Z,12.20
2018-04-15T06:26:49.137Z,12.30
2018-04-15T06:29:16.720Z,12.20
2018-04-15T06:31:44.240Z,12.20
2018-04-15T06:34:11.806Z,12.20
2018-04-15T06:36:39.623Z,12.20
2018-04-15T06:39:07.139Z,12.20
2018-04-15T06:41:34.699Z,12.10
2018-04-15T06:44:02.234Z,12.20
2018-04-15T06:46:29.845Z,12.30
2018-04-15T06:48:57.405Z,12.40
2018-04-15T06:51:25.772Z,12.40
2018-04-15T06:53:53.318Z,12.40
2018-04-15T06:56:20.869Z,12.50
2018-04-15T06:58:48.435Z,12.50
2018-04-15T07:01:16.066Z,12.60
2018-04-15T07:03:43.600Z,12.80
2018-04-15T07:06:11.168Z,12.90
2018-04-15T07:08:39.510Z,13.20
2018-04-15T07:11:07.082Z,13.20
2018-04-15T07:13:34.664Z,13.30
2018-04-15T07:16:02.292Z,13.40
2018-04-15T07:18:29.897Z,13.40
2018-04-15T07:20:57.447Z,13.60
2018-04-15T07:23:25.055Z,13.70
2018-04-15T07:25:52.636Z,13.70
2018-04-15T07:28:20.288Z,13.80
2018-04-15T07:30:47.890Z,14.00
2018-04-15T07:33:15.691Z,14.20
2018-04-15T07:35:43.251Z,14.30
2018-04-15T07:38:10.799Z,14.50
2018-04-15T07:40:38.387Z,14.60
2018-04-15T07:43:05.909Z,14.80
2018-04-15T07:45:33.490Z,14.90
2018-04-15T07:48:01.719Z,15.00
2018-04-15T07:50:29.330Z,15.00
2018-04-15T07:52:57.110Z,15.00
2018-04-15T07:55:24.676Z,15.10
2018-04-15T07:57:52.418Z,15.10
2018-04-15T08:00:19.939Z,15.10
2018-04-15T08:02:47.488Z,15.20
2018-04-15T08:05:15.098Z,15.20
2018-04-15T08:07:42.697Z,15.30
2018-04-15T08:10:10.326Z,15.30
2018-04-15T08:12:37.939Z,15.40
2018-04-15T08:15:05.545Z,15.40
2018-04-15T08:17:33.105Z,15.40
2018-04-15T08:20:00.677Z,15.50
2018-04-15T08:22:30.552Z,15.60
2018-04-15T08:24:58.120Z,15.60
2018-04-15T08:27:25.645Z,15.60
2018-04-15T08:29:53.991Z,15.70
2018-04-15T08:32:21.588Z,15.70
2018-04-15T08:34:49.164Z,15.70
2018-04-15T08:37:17.492Z,15.80
2018-04-15T08:39:45.299Z,15.80
2018-04-15T08:42:13.590Z,15.90
2018-04-15T08:44:41.247Z,15.90
2018-04-15T08:47:08.808Z,15.90
2018-04-15T08:49:36.370Z,16.00
2018-04-15T08:52:03.910Z,16.00
2018-04-15T08:54:31.560Z,16.00
2018-04-15T08:56:59.205Z,16.00
2018-04-15T08:59:26.796Z,16.10
2018-04-15T09:01:55.139Z,16.20
2018-04-15T09:04:22.669Z,16.20
2018-04-15T09:06:50.282Z,16.30
2018-04-15T09:09:17.862Z,16.30
2018-04-15T09:11:46.150Z,16.50
2018-04-15T09:14:13.759Z,16.50
2018-04-15T09:16:41.359Z,16.50
2018-04-15T09:19:08.965Z,16.50
2018-04-15T09:21:36.528Z,16.50
2018-04-15T09:24:04.210Z,16.60
2018-04-15T09:26:31.846Z,16.70
2018-04-15T09:28:59.421Z,16.80
2018-04-15T09:31:26.977Z,16.90
2018-04-15T09:33:54.543Z,17.00
2018-04-15T09:36:22.434Z,17.00
2018-04-15T09:38:49.959Z,17.00
2018-04-15T09:41:17.584Z,17.10
2018-04-15T09:43:45.150Z,17.10
2018-04-15T09:46:12.763Z,17.10
2018-04-15T09:48:40.355Z,17.10
2018-04-15T09:51:07.969Z,17.20
2018-04-15T09:53:35.548Z,17.20
2018-04-15T09:56:03.102Z,17.20
2018-04-15T09:58:30.716Z,17.20
2018-04-15T10:01:03.147Z,17.20
2018-04-15T10:03:30.711Z,17.30
2018-04-15T10:05:58.307Z,17.20
2018-04-15T10:08:25.884Z,17.30
2018-04-15T10:10:54.422Z,17.40
2018-04-15T10:13:22.742Z,17.30
2018-04-15T10:15:50.304Z,17.30
2018-04-15T10:18:17.839Z,17.40
2018-04-15T10:20:45.457Z,17.40
2018-04-15T10:23:13.031Z,17.50
2018-04-15T10:25:40.636Z,17.50
2018-04-15T10:28:08.208Z,17.50
2018-04-15T10:30:35.809Z,17.60
2018-04-15T10:33:03.380Z,17.60
2018-04-15T10:35:31.699Z,17.60
2018-04-15T10:37:59.255Z,17.60
2018-04-15T10:40:26.831Z,17.60
2018-04-15T10:42:54.450Z,17.60
2018-04-15T10:45:22.758Z,17.70
2018-04-15T10:47:50.334Z,17.70
2018-04-15T10:50:17.978Z,17.70
2018-04-15T10:52:45.547Z,17.70
2018-04-15T10:55:13.148Z,17.70
2018-04-15T10:57:40.797Z,17.80
2018-04-15T11:00:08.345Z,17.70
2018-04-15T11:02:35.932Z,17.70
2018-04-15T11:05:03.534Z,17.80
2018-04-15T11:07:31.165Z,17.80
2018-04-15T11:09:59.495Z,17.80
2018-04-15T11:12:27.051Z,17.80
2018-04-15T11:14:54.634Z,17.90
2018-04-15T11:17:22.170Z,17.90
2018-04-15T11:19:49.778Z,17.90
2018-04-15T11:22:17.353Z,17.90
2018-04-15T11:24:44.936Z,17.90
2018-04-15T11:27:12.498Z,18.00
2018-04-15T11:29:40.170Z,18.00
2018-04-15T11:32:07.726Z,18.10
2018-04-15T11:34:35.439Z,18.10
2018-04-15T11:37:03.004Z,18.10
2018-04-15T11:39:30.563Z,18.10
2018-04-15T11:41:58.955Z,18.20
2018-04-15T11:44:26.524Z,18.20
2018-04-15T11:46:54.830Z,18.20
2018-04-15T11:49:22.359Z,18.20
2018-04-15T11:51:50.771Z,18.20
2018-04-15T11:54:18.322Z,18.20
2018-04-15T11:56:45.888Z,18.20
2018-04-15T11:59:13.449Z,18.30
2018-04-15T12:01:41.113Z,18.40
2018-04-15T12:04:09.632Z,18.40
2018-04-15T12:06:37.231Z,18.40
2018-04-15T12:09:04.888Z,18.50
2018-04-15T12:11:32.495Z,18.40
2018-04-15T12:14:00.036Z,18.50
2018-04-15T12:16:27.603Z,18.50
2018-04-15T12:18:55.175Z,18.50
2018-04-15T12:21:22.726Z,18.50
2018-04-15T12:23:50.251Z,18.60
2018-04-15T12:26:17.812Z,18.60
2018-04-15T12:28:45.368Z,18.60
2018-04-15T12:31:12.956Z,18.60
2018-04-15T12:33:40.543Z,18.60
2018-04-15T12:36:08.097Z,18.70
2018-04-15T12:38:35.700Z,18.80
2018-04-15T12:41:04.155Z,19.00
2018-04-15T12:43:31.790Z,19.00
2018-04-15T12:45:59.336Z,19.00
2018-04-15T12:48:26.960Z,19.00
2018-04-15T12:50:54.546Z,19.00
2018-04-15T12:53:22.132Z,18.90
2018-04-15T12:55:49.729Z,18.90
2018-04-15T12:58:17.414Z,18.90
2018-04-15T13:00:44.971Z,19.00
2018-04-15T13:03:13.300Z,19.00
2018-04-15T13:05:40.860Z,19.00
2018-04-15T13:08:08.385Z,19.10
2018-04-15T13:10:35.967Z,19.10
2018-04-15T13:13:03.499Z,19.10
2018-04-15T13:15:31.032Z,19.10
2018-04-15T13:17:58.605Z,19.10
2018-04-15T13:20:26.147Z,19.20
2018-04-15T13:22:54.492Z,19.20
2018-04-15T13:25:22.069Z,19.10
2018-04-15T13:27:49.625Z,19.20
2018-04-15T13:30:17.963Z,19.20
2018-04-15T13:32:45.536Z,19.20
2018-04-15T13:35:13.104Z,19.30
2018-04-15T13:37:40.676Z,19.30
2018-04-15T13:40:08.275Z,19.40
2018-04-15T13:42:36.614Z,19.40
2018-04-15T13:45:04.435Z,19.30
2018-04-15T13:47:32.028Z,19.40
2018-04-15T13:49:59.690Z,19.40
2018-04-15T13:52:27.436Z,19.40
2018-04-15T13:54:55.035Z,19.40
2018-04-15T13:57:23.412Z,19.50
2018-04-15T13:59:50.961Z,19.50
2018-04-15T14:02:18.732Z,19.60
2018-04-15T14:04:46.296Z,19.70
2018-04-15T14:07:13.859Z,19.70
2018-04-15T14:09:41.580Z,19.70
2018-04-15T14:12:09.233Z,19.80
2018-04-15T14:14:36.840Z,19.80
2018-04-15T14:17:04.509Z,19.80
2018-04-15T14:19:32.063Z,19.90
2018-04-15T14:21:59.611Z,19.90
2018-04-15T14:24:27.214Z,19.90
2018-04-15T14:26:54.760Z,19.90
2018-04-15T14:29:22.342Z,19.90
2018-04-15T14:31:49.931Z,19.80
2018-04-15T14:34:17.519Z,19.80
2018-04-15T14:36:45.097Z,19.70
2018-04-15T14:39:12.653Z,19.70
2018-04-15T14:41:40.261Z,19.70
2018-04-15T14:44:08.573Z,19.70
2018-04-15T14:46:36.143Z,19.70
2018-04-15T14:49:03.696Z,19.70
2018-04-15T14:51:31.310Z,19.70
2018-04-15T14:53:59.712Z,19.70
2018-04-15T14:56:27.255Z,19.60
2018-04-15T14:58:54.820Z,19.70
2018-04-15T15:01:22.399Z,19.80
2018-04-15T15:03:49.979Z,19.80
2018-04-15T15:06:17.538Z,19.80
2018-04-15T15:08:45.117Z,19.80
2018-04-15T15:11:12.783Z,19.90
2018-04-15T15:13:40.345Z,19.90
2018-04-15T15:16:08.679Z,19.90
2018-04-15T15:18:36.211Z,19.90
2018-04-15T15:21:03.841Z,19.90
2018-04-15T15:23:31.408Z,19.90
2018-04-15T15:25:59.020Z,20.00
2018-04-15T15:28:26.872Z,20.00
2018-04-15T15:30:54.452Z,20.00
2018-04-15T15:33:22.233Z,20.10
2018-04-15T15:35:49.880Z,20.10
2018-04-15T15:38:17.431Z,20.10
2018-04-15T15:40:45.036Z,20.10
2018-04-15T15:43:12.721Z,20.10
2018-04-15T15:45:40.326Z,20.00
2018-04-15T15:48:07.876Z,20.00
2018-04-15T15:50:35.464Z,20.00
2018-04-15T15:53:03.032Z,19.90
2018-04-15T15:55:30.605Z,19.80
2018-04-15T15:57:58.147Z,19.80
2018-04-15T16:00:25.737Z,19.80
2018-04-15T16:02:54.282Z,19.80
2018-04-15T16:05:21.920Z,19.80
2018-04-15T16:07:49.520Z,19.80
2018-04-15T16:10:17.200Z,19.80
2018-04-15T16:12:44.839Z,19.80
2018-04-15T16:15:12.436Z,19.70
2018-04-15T16:17:40.025Z,19.70
2018-04-15T16:20:07.600Z,19.70
2018-04-15T16:22:35.196Z,19.60
2018-04-15T16:25:02.735Z,19.60
2018-04-15T16:27:30.469Z,19.60
2018-04-15T16:29:58.059Z,19.60
2018-04-15T16:32:25.857Z,19.60
2018-04-15T16:34:53.497Z,19.50
2018-04-15T16:37:21.032Z,19.50
2018-04-15T16:39:48.607Z,19.50
2018-04-15T16:42:16.150Z,19.50
2018-04-15T16:44:43.800Z,19.50
2018-04-15T16:47:11.617Z,19.50
2018-04-15T16:49:39.992Z,19.40
2018-04-15T16:52:07.552Z,19.40
2018-04-15T16:54:35.868Z,19.50
2018-04-15T16:57:03.460Z,19.50
2018-04-15T16:59:31.034Z,19.50
2018-04-15T17:01:58.598Z,19.50
2018-04-15T17:04:26.285Z,19.40
2018-04-15T17:06:54.601Z,19.40
2018-04-15T17:09:22.207Z,19.40
2018-04-15T17:11:49.818Z,19.40
2018-04-15T17:14:17.360Z,19.40
2018-04-15T17:16:44.996Z,19.40
2018-04-15T17:19:12.629Z,19.30
2018-04-15T17:21:40.288Z,19.30
2018-04-15T17:24:07.856Z,19.30
2018-04-15T17:26:35.486Z,19.30
2018-04-15T17:29:04.012Z,19.30
2018-04-15T17:31:31.598Z,19.20
2018-04-15T17:33:59.147Z,19.20
2018-04-15T17:36:26.775Z,19.20
2018-04-15T17:38:54.373Z,19.20
2018-04-15T17:41:22.689Z,19.20
2018-04-15T17:43:50.313Z,19.20
2018-04-15T17:46:17.880Z,19.10
2018-04-15T17:48:45.651Z,19.10
2018-04-15T17:51:13.262Z,19.10
2018-04-15T17:53:47.155Z,19.10
2018-04-15T17:56:14.678Z,19.10
2018-04-15T17:58:42.210Z,19.00
2018-04-15T18:01:09.820Z,19.00
2018-04-15T18:03:37.449Z,19.00
2018-04-15T18:06:05.741Z,19.00
2018-04-15T18:08:33.305Z,19.00
2018-04-15T18:11:00.863Z,19.00
2018-04-15T18:13:28.471Z,18.90
2018-04-15T18:15:56.082Z,18.90
2018-04-15T18:18:23.624Z,18.90
2018-04-15T18:20:51.204Z,18.90
2018-04-15T18:23:18.748Z,18.90
2018-04-15T18:25:46.322Z,18.90
2018-04-15T18:28:14.300Z,18.90
2018-04-15T18:30:41.751Z,18.80
2018-04-15T18:33:09.298Z,18.90
2018-04-15T18:35:36.855Z,18.80
2018-04-15T18:38:04.469Z,18.80
2018-04-15T18:40:32.065Z,18.80
2018-04-15T18:42:59.611Z,18.80
2018-04-15T18:45:27.164Z,18.70
2018-04-15T18:47:54.777Z,18.70
2018-04-15T18:50:22.416Z,18.70
2018-04-15T18:52:49.934Z,18.70
2018-04-15T18:55:17.533Z,18.70
2018-04-15T18:57:45.040Z,18.70
2018-04-15T19:00:12.624Z,18.60
2018-04-15T19:02:40.164Z,18.60
2018-04-15T19:05:07.803Z,18.60
2018-04-15T19:07:35.384Z,18.60
2018-04-15T19:10:03.011Z,18.60
2018-04-15T19:12:30.577Z,18.60
2018-04-15T19:14:58.265Z,18.60
2018-04-15T19:17:25.892Z,18.60
2018-04-15T19:19:53.443Z,18.60
2018-04-15T19:22:21.023Z,18.60
2018-04-15T19:24:48.560Z,18.60
2018-04-15T19:27:16.232Z,18.60
2018-04-15T19:29:43.840Z,18.60
2018-04-15T19:32:11.381Z,18.50
2018-04-15T19:34:38.987Z,18.50
2018-04-15T19:37:06.519Z,18.50
2018-04-15T19:39:34.087Z,18.50
2018-04-15T19:42:01.784Z,18.50
2018-04-15T19:44:29.398Z,18.50
2018-04-15T19:46:56.956Z,18.50
2018-04-15T19:49:24.524Z,18.50
2018-04-15T19:51:52.059Z,18.50
2018-04-15T19:54:19.607Z,18.40
2018-04-15T19:56:47.125Z,18.50
2018-04-15T19:59:14.688Z,18.40
2018-04-15T20:01:42.248Z,18.40
2018-04-15T20:04:10.575Z,18.40
2018-04-15T20:06:38.119Z,18.40
2018-04-15T20:09:06.202Z,18.40
2018-04-15T20:11:33.767Z,18.40
2018-04-15T20:14:01.345Z,18.40
2018-04-15T20:16:28.881Z,18.30
2018-04-15T20:18:56.433Z,18.30
2018-04-15T20:21:24.006Z,18.30
2018-04-15T20:23:51.609Z,18.30
2018-04-15T20:26:19.204Z,18.30
2018-04-15T20:28:46.761Z,18.30
2018-04-15T20:31:14.356Z,18.30
2018-04-15T20:33:41.903Z,18.30
2018-04-15T20:36:09.455Z,18.30
2018-04-15T20:38:37.026Z,18.30
2018-04-15T20:41:04.676Z,18.30
2018-04-15T20:43:32.225Z,18.30
2018-04-15T20:45:59.787Z,18.30
2018-04-15T20:48:27.382Z,18.30
2018-04-15T20:50:54.916Z,18.30
2018-04-15T20:53:22.469Z,18.30
2018-04-15T20:55:50.028Z,18.30
2018-04-15T20:58:17.559Z,18.30
2018-04-15T21:00:45.123Z,18.30
2018-04-15T21:03:12.710Z,18.20
2018-04-15T21:05:40.344Z,18.20
2018-04-15T21:08:07.916Z,18.20
2018-04-15T21:10:36.258Z,18.20
2018-04-15T21:13:03.846Z,18.20
2018-04-15T21:15:31.467Z,18.10
2018-04-15T21:17:59.009Z,18.20
2018-04-15T21:20:26.568Z,18.10
2018-04-15T21:22:54.580Z,18.10
2018-04-15T21:25:22.199Z,18.10
2018-04-15T21:27:49.913Z,18.10
2018-04-15T21:30:17.454Z,18.00
2018-04-15T21:32:45.085Z,18.00
2018-04-15T21:35:12.641Z,18.00
2018-04-15T21:37:40.212Z,18.10
2018-04-15T21:40:07.731Z,18.00
2018-04-15T21:42:35.269Z,18.00
2018-04-15T21:45:02.831Z,17.90
2018-04-15T21:47:30.430Z,17.90
2018-04-15T21:49:58.004Z,17.90
2018-04-15T21:52:25.591Z,17.90
2018-04-15T21:54:53.161Z,17.80
2018-04-15T21:57:20.735Z,17.90
2018-04-15T21:59:49.170Z,17.80
2018-04-15T22:02:16.778Z,17.80
2018-04-15T22:04:44.340Z,17.80
2018-04-15T22:07:12.717Z,17.70
2018-04-15T22:09:41.057Z,17.70
2018-04-15T22:12:17.372Z,17.70
2018-04-15T22:14:44.973Z,17.70
2018-04-15T22:17:12.528Z,17.60
2018-04-15T22:19:40.059Z,17.70
2018-04-15T22:22:07.619Z,17.70
2018-04-15T22:24:35.153Z,17.60
2018-04-15T22:27:03.456Z,17.70
2018-04-15T22:29:31.088Z,17.60
2018-04-15T22:31:58.625Z,17.70
2018-04-15T22:34:26.175Z,17.60
2018-04-15T22:36:53.770Z,17.70
2018-04-15T22:39:21.300Z,17.80
2018-04-15T22:41:48.915Z,17.70
2018-04-15T22:44:17.246Z,17.60
2018-04-15T22:46:44.860Z,17.60
2018-04-15T22:49:18.137Z,17.60
2018-04-15T22:51:45.666Z,17.60
2018-04-15T22:54:13.212Z,17.50
2018-04-15T22:56:43.739Z,17.50
2018-04-15T22:59:11.270Z,17.50
2018-04-15T23:01:38.827Z,17.50
2018-04-15T23:04:06.419Z,17.40
2018-04-15T23:06:33.940Z,17.40
2018-04-15T23:09:01.522Z,17.40
2018-04-15T23:11:29.103Z,17.40
2018-04-15T23:13:56.645Z,17.40
2018-04-15T23:16:24.168Z,17.30
2018-04-15T23:18:51.762Z,17.30
2018-04-15T23:21:19.286Z,17.30
2018-04-15T23:23:46.864Z,17.30
2018-04-15T23:26:14.423Z,17.30
2018-04-15T23:28:41.984Z,17.30
2018-04-15T23:31:09.579Z,17.30
2018-04-15T23:33:37.113Z,17.30
2018-04-15T23:36:04.681Z,17.20
2018-04-15T23:38:32.222Z,17.20
2018-04-15T23:40:59.789Z,17.30
2018-04-15T23:43:27.313Z,17.30
2018-04-15T23:45:54.888Z,17.30
2018-04-15T23:48:22.487Z,17.30
2018-04-15T23:50:50.068Z,17.10
2018-04-15T23:53:17.629Z,17.10
2018-04-15T23:55:45.144Z,17.10
2018-04-15T23:58:12.749Z,17.10
